createdAt,value
2022-08-14T00:00:54.693Z,1006.44
2022-08-14T00:01:55.774Z,1006.44
2022-08-14T00:02:54.666Z,1006.42
2022-08-14T00:03:54.651Z,1006.42
2022-08-14T00:04:54.635Z,1006.44
2022-08-14T00:05:59.981Z,1006.43
2022-08-14T00:06:54.606Z,1006.40
2022-08-14T00:07:54.593Z,1006.42
2022-08-14T00:08:54.580Z,1006.42
2022-08-14T00:09:54.593Z,1006.36
2022-08-14T00:10:54.549Z,1006.38
2022-08-14T00:11:54.542Z,1006.38
2022-08-14T00:12:56.702Z,1006.36
2022-08-14T00:13:54.507Z,1006.34
2022-08-14T00:14:55.229Z,1006.30
2022-08-14T00:15:54.479Z,1006.32
2022-08-14T00:16:55.981Z,1006.30
2022-08-14T00:17:54.450Z,1006.25
2022-08-14T00:19:06.578Z,1006.29
2022-08-14T00:19:54.419Z,1006.25
2022-08-14T00:20:54.409Z,1006.25
2022-08-14T00:21:54.394Z,1006.20
2022-08-14T00:22:57.848Z,1006.21
2022-08-14T00:23:54.364Z,1006.21
2022-08-14T00:24:54.351Z,1006.16
2022-08-14T00:26:05.680Z,1006.14
2022-08-14T00:26:54.672Z,1006.16
2022-08-14T00:27:54.304Z,1006.17
2022-08-14T00:28:54.293Z,1006.12
2022-08-14T00:29:54.280Z,1006.09
2022-08-14T00:30:54.263Z,1006.11
2022-08-14T00:31:56.023Z,1006.12
2022-08-14T00:33:01.791Z,1006.08
2022-08-14T00:33:54.219Z,1006.08
2022-08-14T00:34:54.209Z,1006.11
2022-08-14T00:36:37.179Z,1006.06
2022-08-14T00:36:54.177Z,1006.06
2022-08-14T00:37:54.161Z,1006.11
2022-08-14T00:38:54.151Z,1006.12
2022-08-14T00:39:54.211Z,1006.08
2022-08-14T00:40:54.122Z,1006.09
2022-08-14T00:41:54.110Z,1006.09
2022-08-14T00:43:03.036Z,1006.10
2022-08-14T00:43:54.075Z,1006.07
2022-08-14T00:44:54.062Z,1006.08
2022-08-14T00:45:54.049Z,1006.04
2022-08-14T00:46:54.038Z,1006.02
2022-08-14T00:47:54.019Z,1006.04
2022-08-14T00:48:54.088Z,1006.01
2022-08-14T00:49:53.988Z,1006.02
2022-08-14T00:50:53.975Z,1005.99
2022-08-14T00:51:53.960Z,1005.99
2022-08-14T00:52:53.946Z,1005.97
2022-08-14T00:53:53.930Z,1005.95
2022-08-14T00:54:57.949Z,1005.96
2022-08-14T00:55:53.902Z,1005.89
2022-08-14T00:56:54.852Z,1005.93
2022-08-14T00:57:53.876Z,1005.90
2022-08-14T00:58:53.864Z,1005.88
2022-08-14T00:59:53.844Z,1005.88
2022-08-14T01:00:57.796Z,1005.86
2022-08-14T01:01:53.850Z,1005.83
2022-08-14T01:02:54.036Z,1005.84
2022-08-14T01:03:53.792Z,1005.84
2022-08-14T01:04:54.959Z,1005.85
2022-08-14T01:05:53.758Z,1005.83
2022-08-14T01:06:55.343Z,1005.84
2022-08-14T01:07:54.049Z,1005.87
2022-08-14T01:08:59.509Z,1005.88
2022-08-14T01:09:53.697Z,1005.85
2022-08-14T01:10:53.689Z,1005.86
2022-08-14T01:12:02.578Z,1005.83
2022-08-14T01:12:53.658Z,1005.85
2022-08-14T01:13:56.007Z,1005.81
2022-08-14T01:14:53.627Z,1005.78
2022-08-14T01:15:58.461Z,1005.78
2022-08-14T01:16:55.678Z,1005.76
2022-08-14T01:17:53.581Z,1005.75
2022-08-14T01:19:00.981Z,1005.74
2022-08-14T01:19:53.821Z,1005.74
2022-08-14T01:20:53.539Z,1005.74
2022-08-14T01:21:53.820Z,1005.70
2022-08-14T01:22:53.510Z,1005.68
2022-08-14T01:23:53.829Z,1005.66
2022-08-14T01:24:53.480Z,1005.66
2022-08-14T01:25:53.474Z,1005.66
2022-08-14T01:26:53.452Z,1005.62
2022-08-14T01:27:56.912Z,1005.65
2022-08-14T01:28:56.920Z,1005.65
2022-08-14T01:30:01.028Z,1005.59
2022-08-14T01:30:53.394Z,1005.62
2022-08-14T01:31:53.377Z,1005.59
2022-08-14T01:32:53.364Z,1005.58
2022-08-14T01:35:16.007Z,1005.55
2022-08-14T01:35:18.572Z,1005.55
2022-08-14T01:36:05.562Z,1005.48
2022-08-14T01:36:53.304Z,1005.52
2022-08-14T01:37:54.697Z,1005.54
2022-08-14T01:38:53.274Z,1005.50
2022-08-14T01:39:54.402Z,1005.55
2022-08-14T01:40:53.243Z,1005.56
2022-08-14T01:41:53.233Z,1005.56
2022-08-14T01:42:53.215Z,1005.51
2022-08-14T01:43:56.461Z,1005.50
2022-08-14T01:44:54.393Z,1005.51
2022-08-14T01:46:05.946Z,1005.48
2022-08-14T01:46:57.948Z,1005.47
2022-08-14T01:48:03.272Z,1005.47
2022-08-14T01:48:53.128Z,1005.45
2022-08-14T01:50:01.244Z,1005.43
2022-08-14T01:50:53.096Z,1005.40
2022-08-14T01:51:53.082Z,1005.43
2022-08-14T01:52:58.877Z,1005.36
2022-08-14T01:53:55.426Z,1005.35
2022-08-14T01:54:57.894Z,1005.35
2022-08-14T01:55:53.025Z,1005.35
2022-08-14T01:56:55.562Z,1005.34
2022-08-14T01:58:18.324Z,1005.32
2022-08-14T01:58:58.143Z,1005.34
2022-08-14T01:59:52.966Z,1005.32
2022-08-14T02:00:52.952Z,1005.33
2022-08-14T02:01:58.891Z,1005.27
2022-08-14T02:02:52.975Z,1005.29
2022-08-14T02:03:56.957Z,1005.26
2022-08-14T02:04:57.369Z,1005.22
2022-08-14T02:05:52.874Z,1005.20
2022-08-14T02:06:54.097Z,1005.18
2022-08-14T02:07:55.533Z,1005.20
2022-08-14T02:08:55.259Z,1005.19
2022-08-14T02:09:55.846Z,1005.18
2022-08-14T02:10:52.799Z,1005.20
2022-08-14T02:11:54.684Z,1005.16
2022-08-14T02:12:56.873Z,1005.17
2022-08-14T02:13:52.756Z,1005.14
2022-08-14T02:15:00.357Z,1005.15
2022-08-14T02:15:52.724Z,1005.12
2022-08-14T02:16:52.710Z,1005.08
2022-08-14T02:17:52.697Z,1005.06
2022-08-14T02:18:52.679Z,1005.09
2022-08-14T02:19:52.666Z,1005.11
2022-08-14T02:20:52.649Z,1005.08
2022-08-14T02:21:52.636Z,1005.10
2022-08-14T02:22:52.623Z,1005.04
2022-08-14T02:23:53.573Z,1005.04
2022-08-14T02:24:52.795Z,1005.03
2022-08-14T02:25:54.616Z,1004.99
2022-08-14T02:28:19.308Z,1004.98
2022-08-14T02:28:25.153Z,1004.98
2022-08-14T02:28:57.618Z,1004.95
2022-08-14T02:29:59.091Z,1004.97
2022-08-14T02:30:52.864Z,1004.94
2022-08-14T02:31:52.485Z,1004.94
2022-08-14T02:32:52.469Z,1004.90
2022-08-14T02:33:52.456Z,1004.98
2022-08-14T02:34:52.442Z,1004.94
2022-08-14T02:35:53.265Z,1004.94
2022-08-14T02:37:03.866Z,1004.92
2022-08-14T02:37:52.395Z,1004.91
2022-08-14T02:38:52.380Z,1004.91
2022-08-14T02:39:52.422Z,1004.86
2022-08-14T02:40:52.348Z,1004.84
2022-08-14T02:41:58.224Z,1004.83
2022-08-14T02:42:54.950Z,1004.80
2022-08-14T02:43:52.303Z,1004.77
2022-08-14T02:44:52.290Z,1004.78
2022-08-14T02:45:52.274Z,1004.77
2022-08-14T02:46:52.257Z,1004.74
2022-08-14T02:47:53.744Z,1004.72
2022-08-14T02:49:01.651Z,1004.74
2022-08-14T02:49:54.923Z,1004.73
2022-08-14T02:50:53.554Z,1004.72
2022-08-14T02:51:52.185Z,1004.68
2022-08-14T02:52:57.411Z,1004.69
2022-08-14T02:53:52.152Z,1004.68
2022-08-14T02:54:52.144Z,1004.69
2022-08-14T02:55:52.459Z,1004.67
2022-08-14T02:57:15.335Z,1004.67
2022-08-14T02:58:02.919Z,1004.62
2022-08-14T02:58:55.571Z,1004.63
2022-08-14T02:59:52.064Z,1004.68
2022-08-14T03:00:52.113Z,1004.65
2022-08-14T03:01:54.868Z,1004.65
2022-08-14T03:02:58.928Z,1004.62
2022-08-14T03:03:52.001Z,1004.61
2022-08-14T03:04:51.985Z,1004.60
2022-08-14T03:05:51.973Z,1004.59
2022-08-14T03:07:06.576Z,1004.56
2022-08-14T03:07:53.041Z,1004.56
2022-08-14T03:08:51.926Z,1004.52
2022-08-14T03:10:25.866Z,1004.49
2022-08-14T03:10:51.894Z,1004.46
2022-08-14T03:11:51.881Z,1004.48
2022-08-14T03:12:51.865Z,1004.44
2022-08-14T03:13:51.851Z,1004.42
2022-08-14T03:14:51.834Z,1004.44
2022-08-14T03:15:55.018Z,1004.43
2022-08-14T03:16:51.804Z,1004.42
2022-08-14T03:17:57.789Z,1004.39
2022-08-14T03:18:52.330Z,1004.41
2022-08-14T03:19:51.758Z,1004.39
2022-08-14T03:20:51.743Z,1004.41
2022-08-14T03:21:53.000Z,1004.40
2022-08-14T03:22:51.713Z,1004.42
2022-08-14T03:23:51.698Z,1004.42
2022-08-14T03:24:51.803Z,1004.39
2022-08-14T03:25:51.669Z,1004.45
2022-08-14T03:26:57.361Z,1004.40
2022-08-14T03:27:59.037Z,1004.43
2022-08-14T03:28:51.624Z,1004.43
2022-08-14T03:29:51.609Z,1004.40
2022-08-14T03:30:51.595Z,1004.45
2022-08-14T03:31:51.576Z,1004.46
2022-08-14T03:32:51.561Z,1004.40
2022-08-14T03:33:51.636Z,1004.45
2022-08-14T03:34:55.663Z,1004.43
2022-08-14T03:35:59.810Z,1004.42
2022-08-14T03:37:39.395Z,1004.47
2022-08-14T03:39:10.557Z,1004.46
2022-08-14T03:39:15.184Z,1004.47
2022-08-14T03:39:51.477Z,1004.49
2022-08-14T03:40:51.438Z,1004.52
2022-08-14T03:41:51.431Z,1004.51
2022-08-14T03:42:51.409Z,1004.51
2022-08-14T03:43:57.901Z,1004.49
2022-08-14T03:45:20.371Z,1004.51
2022-08-14T03:45:51.366Z,1004.47
2022-08-14T03:46:54.361Z,1004.49
2022-08-14T03:47:58.356Z,1004.48
2022-08-14T03:48:54.223Z,1004.48
2022-08-14T03:49:51.302Z,1004.50
2022-08-14T03:50:51.286Z,1004.49
2022-08-14T03:51:51.272Z,1004.53
2022-08-14T03:52:55.975Z,1004.50
2022-08-14T03:53:51.239Z,1004.53
2022-08-14T03:54:52.617Z,1004.52
2022-08-14T03:55:51.211Z,1004.53
2022-08-14T03:56:51.196Z,1004.50
2022-08-14T03:57:51.180Z,1004.50
2022-08-14T03:58:51.163Z,1004.52
2022-08-14T03:59:51.149Z,1004.50
2022-08-14T04:00:51.193Z,1004.48
2022-08-14T04:01:58.184Z,1004.47
2022-08-14T04:02:53.469Z,1004.43
2022-08-14T04:03:51.086Z,1004.45
2022-08-14T04:04:51.071Z,1004.44
2022-08-14T04:05:51.083Z,1004.42
2022-08-14T04:06:51.039Z,1004.39
2022-08-14T04:08:08.317Z,1004.42
2022-08-14T04:08:51.012Z,1004.43
2022-08-14T04:09:50.994Z,1004.45
2022-08-14T04:10:50.983Z,1004.42
2022-08-14T04:11:50.971Z,1004.41
2022-08-14T04:12:51.752Z,1004.43
2022-08-14T04:13:50.932Z,1004.45
2022-08-14T04:14:50.917Z,1004.45
2022-08-14T04:16:01.421Z,1004.45
2022-08-14T04:16:50.892Z,1004.46
2022-08-14T04:17:50.871Z,1004.44
2022-08-14T04:18:50.856Z,1004.49
2022-08-14T04:19:50.841Z,1004.48
2022-08-14T04:20:54.269Z,1004.49
2022-08-14T04:22:02.408Z,1004.47
2022-08-14T04:22:50.792Z,1004.51
2022-08-14T04:23:57.874Z,1004.53
2022-08-14T04:24:50.764Z,1004.54
2022-08-14T04:25:50.748Z,1004.52
2022-08-14T04:26:50.732Z,1004.53
2022-08-14T04:28:02.202Z,1004.47
2022-08-14T04:29:06.891Z,1004.48
2022-08-14T04:29:50.687Z,1004.47
2022-08-14T04:30:50.671Z,1004.49
2022-08-14T04:32:57.335Z,1004.47
2022-08-14T04:33:10.369Z,1004.43
2022-08-14T04:33:50.624Z,1004.39
2022-08-14T04:34:52.141Z,1004.38
2022-08-14T04:35:56.115Z,1004.39
2022-08-14T04:36:50.575Z,1004.38
2022-08-14T04:37:53.805Z,1004.40
2022-08-14T04:38:50.546Z,1004.37
2022-08-14T04:39:56.912Z,1004.36
2022-08-14T04:40:50.514Z,1004.40
2022-08-14T04:41:50.500Z,1004.43
2022-08-14T04:42:51.521Z,1004.44
2022-08-14T04:43:50.470Z,1004.50
2022-08-14T04:44:51.477Z,1004.50
2022-08-14T04:45:51.074Z,1004.52
2022-08-14T04:46:55.709Z,1004.52
2022-08-14T04:47:53.555Z,1004.53
2022-08-14T04:48:51.342Z,1004.55
2022-08-14T04:49:57.281Z,1004.52
2022-08-14T04:50:54.062Z,1004.51
2022-08-14T04:51:55.909Z,1004.50
2022-08-14T04:52:54.011Z,1004.48
2022-08-14T04:53:50.313Z,1004.48
2022-08-14T04:54:50.295Z,1004.48
2022-08-14T04:55:51.636Z,1004.46
2022-08-14T04:56:50.266Z,1004.48
2022-08-14T04:57:50.251Z,1004.43
2022-08-14T04:58:50.233Z,1004.46
2022-08-14T04:59:50.910Z,1004.42
2022-08-14T05:00:50.203Z,1004.43
2022-08-14T05:01:52.891Z,1004.44
2022-08-14T05:02:50.170Z,1004.43
2022-08-14T05:03:50.629Z,1004.43
2022-08-14T05:04:57.390Z,1004.40
2022-08-14T05:05:50.125Z,1004.43
2022-08-14T05:06:53.673Z,1004.46
2022-08-14T05:08:01.312Z,1004.43
2022-08-14T05:09:00.130Z,1004.45
2022-08-14T05:09:50.071Z,1004.48
2022-08-14T05:10:50.045Z,1004.47
2022-08-14T05:11:50.030Z,1004.48
2022-08-14T05:13:11.196Z,1004.40
2022-08-14T05:14:54.623Z,1004.42
2022-08-14T05:15:49.969Z,1004.42
2022-08-14T05:16:49.951Z,1004.40
2022-08-14T05:17:58.878Z,1004.36
2022-08-14T05:19:24.712Z,1004.35
2022-08-14T05:20:33.469Z,1004.35
2022-08-14T05:21:57.330Z,1004.34
2022-08-14T05:21:58.223Z,1004.33
2022-08-14T05:22:55.627Z,1004.32
2022-08-14T05:23:49.843Z,1004.37
2022-08-14T05:24:51.157Z,1004.34
2022-08-14T05:25:49.813Z,1004.34
2022-08-14T05:26:49.796Z,1004.35
2022-08-14T05:27:49.784Z,1004.35
2022-08-14T05:28:49.772Z,1004.29
2022-08-14T05:29:49.749Z,1004.31
2022-08-14T05:30:49.746Z,1004.32
2022-08-14T05:31:50.466Z,1004.28
2022-08-14T05:32:49.700Z,1004.27
2022-08-14T05:33:56.737Z,1004.23
2022-08-14T05:34:49.670Z,1004.26
2022-08-14T05:35:49.654Z,1004.27
2022-08-14T05:36:50.419Z,1004.23
2022-08-14T05:37:49.626Z,1004.25
2022-08-14T05:38:49.611Z,1004.25
2022-08-14T05:39:49.620Z,1004.23
2022-08-14T05:40:49.578Z,1004.24
2022-08-14T05:41:53.781Z,1004.17
2022-08-14T05:42:52.847Z,1004.18
2022-08-14T05:43:49.550Z,1004.14
2022-08-14T05:44:49.516Z,1004.14
2022-08-14T05:45:49.501Z,1004.12
2022-08-14T05:46:49.483Z,1004.08
2022-08-14T05:47:50.720Z,1004.07
2022-08-14T05:48:49.453Z,1004.04
2022-08-14T05:49:49.435Z,1004.08
2022-08-14T05:50:49.421Z,1004.08
2022-08-14T05:51:49.406Z,1004.08
2022-08-14T05:52:49.498Z,1004.12
2022-08-14T05:54:00.189Z,1004.13
2022-08-14T05:54:49.361Z,1004.11
2022-08-14T05:55:49.340Z,1004.15
2022-08-14T05:56:49.329Z,1004.16
2022-08-14T05:57:49.312Z,1004.15
2022-08-14T05:58:49.296Z,1004.15
2022-08-14T05:59:49.280Z,1004.14
2022-08-14T06:00:49.267Z,1004.19
2022-08-14T06:01:50.510Z,1004.14
2022-08-14T06:02:49.237Z,1004.10
2022-08-14T06:03:49.222Z,1004.10
2022-08-14T06:04:49.378Z,1004.08
2022-08-14T06:05:51.409Z,1004.08
2022-08-14T06:06:49.175Z,1004.07
2022-08-14T06:07:49.156Z,1004.01
2022-08-14T06:08:49.143Z,1004.03
2022-08-14T06:09:50.916Z,1004.04
2022-08-14T06:10:49.113Z,1004.03
2022-08-14T06:11:49.733Z,1004.04
2022-08-14T06:12:56.704Z,1004.06
2022-08-14T06:13:49.067Z,1004.04
2022-08-14T06:14:49.052Z,1004.04
2022-08-14T06:15:49.033Z,1004.08
2022-08-14T06:16:49.030Z,1004.07
2022-08-14T06:17:58.592Z,1004.01
2022-08-14T06:18:52.418Z,1003.97
2022-08-14T06:19:48.972Z,1003.97
2022-08-14T06:20:48.958Z,1003.96
2022-08-14T06:21:51.093Z,1003.93
2022-08-14T06:22:49.004Z,1003.90
2022-08-14T06:23:49.279Z,1003.87
2022-08-14T06:24:48.897Z,1003.87
2022-08-14T06:25:52.783Z,1003.86
2022-08-14T06:26:54.182Z,1003.82
2022-08-14T06:27:48.849Z,1003.85
2022-08-14T06:28:51.744Z,1003.83
2022-08-14T06:29:48.817Z,1003.84
2022-08-14T06:30:48.805Z,1003.84
2022-08-14T06:32:00.266Z,1003.84
2022-08-14T06:32:52.889Z,1003.88
2022-08-14T06:35:04.125Z,1003.88
2022-08-14T06:35:09.624Z,1003.89
2022-08-14T06:35:48.726Z,1003.90
2022-08-14T06:36:48.712Z,1003.90
2022-08-14T06:37:48.698Z,1003.89
2022-08-14T06:38:50.280Z,1003.92
2022-08-14T06:39:48.711Z,1003.91
2022-08-14T06:40:48.650Z,1003.93
2022-08-14T06:41:57.681Z,1003.94
2022-08-14T06:42:49.431Z,1003.92
2022-08-14T06:43:48.604Z,1003.88
2022-08-14T06:44:48.591Z,1003.89
2022-08-14T06:45:50.195Z,1003.87
2022-08-14T06:46:49.389Z,1003.89
2022-08-14T06:47:48.542Z,1003.90
2022-08-14T06:48:48.528Z,1003.89
2022-08-14T06:49:57.884Z,1003.93
2022-08-14T06:50:48.501Z,1003.94
2022-08-14T06:51:49.882Z,1003.93
2022-08-14T06:52:50.077Z,1003.95
2022-08-14T06:53:48.450Z,1003.95
2022-08-14T06:54:48.439Z,1003.97
2022-08-14T06:55:58.212Z,1003.96
2022-08-14T06:56:54.454Z,1003.95
2022-08-14T06:57:48.389Z,1003.93
2022-08-14T06:58:48.377Z,1003.91
2022-08-14T06:59:48.358Z,1003.91
2022-08-14T07:00:48.346Z,1003.93
2022-08-14T07:01:48.371Z,1003.96
2022-08-14T07:02:48.320Z,1003.95
2022-08-14T07:03:48.297Z,1003.95
2022-08-14T07:04:48.283Z,1003.95
2022-08-14T07:05:57.619Z,1003.97
2022-08-14T07:06:48.254Z,1003.95
2022-08-14T07:07:48.237Z,1003.96
2022-08-14T07:08:48.223Z,1003.93
2022-08-14T07:09:51.044Z,1003.95
2022-08-14T07:10:48.195Z,1003.93
2022-08-14T07:11:48.175Z,1003.94
2022-08-14T07:12:54.963Z,1003.96
2022-08-14T07:13:48.723Z,1003.94
2022-08-14T07:14:48.132Z,1003.90
2022-08-14T07:15:48.117Z,1003.91
2022-08-14T07:16:48.103Z,1003.92
2022-08-14T07:17:52.419Z,1003.90
2022-08-14T07:18:50.932Z,1003.87
2022-08-14T07:19:48.055Z,1003.89
2022-08-14T07:20:48.040Z,1003.87
2022-08-14T07:21:48.029Z,1003.86
2022-08-14T07:22:56.222Z,1003.86
2022-08-14T07:23:47.996Z,1003.86
2022-08-14T07:24:47.980Z,1003.83
2022-08-14T07:25:47.962Z,1003.83
2022-08-14T07:26:47.952Z,1003.80
2022-08-14T07:27:47.934Z,1003.81
2022-08-14T07:28:47.921Z,1003.82
2022-08-14T07:29:47.906Z,1003.78
2022-08-14T07:30:50.754Z,1003.77
2022-08-14T07:31:47.874Z,1003.83
2022-08-14T07:32:48.221Z,1003.80
2022-08-14T07:33:50.272Z,1003.81
2022-08-14T07:34:47.832Z,1003.79
2022-08-14T07:35:58.326Z,1003.79
2022-08-14T07:36:58.196Z,1003.75
2022-08-14T07:37:47.783Z,1003.75
2022-08-14T07:38:52.249Z,1003.77
2022-08-14T07:39:47.816Z,1003.74
2022-08-14T07:40:47.740Z,1003.71
2022-08-14T07:41:47.723Z,1003.73
2022-08-14T07:42:47.710Z,1003.74
2022-08-14T07:43:55.615Z,1003.72
2022-08-14T07:44:50.524Z,1003.68
2022-08-14T07:45:47.664Z,1003.73
2022-08-14T07:46:47.651Z,1003.75
2022-08-14T07:47:47.631Z,1003.73
2022-08-14T07:48:48.134Z,1003.76
2022-08-14T07:49:47.606Z,1003.73
2022-08-14T07:50:47.591Z,1003.75
2022-08-14T07:51:49.685Z,1003.76
2022-08-14T07:52:47.566Z,1003.74
2022-08-14T07:53:47.545Z,1003.75
2022-08-14T07:54:47.531Z,1003.72
2022-08-14T07:56:00.456Z,1003.74
2022-08-14T07:56:49.977Z,1003.72
2022-08-14T07:57:47.486Z,1003.74
2022-08-14T07:58:51.549Z,1003.72
2022-08-14T07:59:49.487Z,1003.71
2022-08-14T08:00:51.480Z,1003.70
2022-08-14T08:01:47.977Z,1003.69
2022-08-14T08:02:51.718Z,1003.67
2022-08-14T08:03:49.487Z,1003.70
2022-08-14T08:04:47.381Z,1003.69
2022-08-14T08:05:47.367Z,1003.69
2022-08-14T08:06:47.354Z,1003.64
2022-08-14T08:07:47.335Z,1003.66
2022-08-14T08:08:47.381Z,1003.72
2022-08-14T08:09:47.306Z,1003.66
2022-08-14T08:11:02.744Z,1003.66
2022-08-14T08:11:47.277Z,1003.65
2022-08-14T08:12:47.264Z,1003.67
2022-08-14T08:13:48.980Z,1003.66
2022-08-14T08:14:56.291Z,1003.63
2022-08-14T08:15:47.220Z,1003.68
2022-08-14T08:16:47.208Z,1003.65
2022-08-14T08:17:53.703Z,1003.63
2022-08-14T08:18:47.178Z,1003.63
2022-08-14T08:19:47.160Z,1003.63
2022-08-14T08:20:52.190Z,1003.61
2022-08-14T08:21:47.150Z,1003.61
2022-08-14T08:22:47.976Z,1003.62
2022-08-14T08:23:51.242Z,1003.54
2022-08-14T08:24:47.088Z,1003.52
2022-08-14T08:25:47.071Z,1003.50
2022-08-14T08:26:47.060Z,1003.48
2022-08-14T08:27:47.042Z,1003.47
2022-08-14T08:28:47.031Z,1003.45
2022-08-14T08:29:50.882Z,1003.43
2022-08-14T08:30:49.985Z,1003.41
2022-08-14T08:31:51.103Z,1003.42
2022-08-14T08:32:47.019Z,1003.40
2022-08-14T08:33:49.675Z,1003.38
2022-08-14T08:34:46.973Z,1003.45
2022-08-14T08:35:50.484Z,1003.39
2022-08-14T08:36:46.986Z,1003.32
2022-08-14T08:37:46.898Z,1003.31
2022-08-14T08:39:17.839Z,1003.28
2022-08-14T08:40:03.487Z,1003.25
2022-08-14T08:40:46.889Z,1003.26
2022-08-14T08:41:49.420Z,1003.22
2022-08-14T08:42:46.977Z,1003.14
2022-08-14T08:43:47.252Z,1003.22
2022-08-14T08:44:46.797Z,1003.14
2022-08-14T08:45:46.783Z,1003.17
2022-08-14T08:46:48.042Z,1003.13
2022-08-14T08:47:46.752Z,1003.16
2022-08-14T08:48:50.366Z,1003.15
2022-08-14T08:49:59.066Z,1003.15
2022-08-14T08:50:46.714Z,1003.17
2022-08-14T08:51:46.696Z,1003.15
2022-08-14T08:52:46.927Z,1003.11
2022-08-14T08:53:46.669Z,1003.12
2022-08-14T08:54:46.657Z,1003.13
2022-08-14T08:55:46.638Z,1003.12
2022-08-14T08:56:46.625Z,1003.10
2022-08-14T08:57:46.609Z,1003.08
2022-08-14T08:58:46.596Z,1003.09
2022-08-14T08:59:46.580Z,1003.07
2022-08-14T09:00:46.621Z,1003.07
2022-08-14T09:01:46.555Z,1003.05
2022-08-14T09:02:46.582Z,1003.01
2022-08-14T09:03:46.531Z,1003.00
2022-08-14T09:04:53.541Z,1002.99
2022-08-14T09:05:46.496Z,1002.94
2022-08-14T09:07:09.029Z,1002.91
2022-08-14T09:07:46.468Z,1002.97
2022-08-14T09:08:46.455Z,1002.95
2022-08-14T09:09:54.490Z,1002.94
2022-08-14T09:10:46.428Z,1002.92
2022-08-14T09:11:46.414Z,1002.92
2022-08-14T09:12:46.587Z,1002.95
2022-08-14T09:13:46.381Z,1002.94
2022-08-14T09:14:46.490Z,1002.92
2022-08-14T09:15:46.351Z,1002.93
2022-08-14T09:16:48.400Z,1002.98
2022-08-14T09:17:46.410Z,1002.93
2022-08-14T09:18:46.313Z,1002.92
2022-08-14T09:19:46.297Z,1002.89
2022-08-14T09:20:46.283Z,1002.95
2022-08-14T09:21:46.268Z,1002.93
2022-08-14T09:22:48.225Z,1002.93
2022-08-14T09:24:26.652Z,1002.96
2022-08-14T09:24:46.226Z,1002.94
2022-08-14T09:26:00.900Z,1002.98
2022-08-14T09:26:49.305Z,1002.91
2022-08-14T09:27:46.183Z,1002.91
2022-08-14T09:28:46.171Z,1002.97
2022-08-14T09:29:46.155Z,1002.95
2022-08-14T09:30:46.145Z,1002.95
2022-08-14T09:31:52.871Z,1003.00
2022-08-14T09:32:59.264Z,1003.02
2022-08-14T09:33:56.042Z,1003.02
2022-08-14T09:34:58.512Z,1003.00
2022-08-14T09:35:46.075Z,1002.98
2022-08-14T09:36:46.058Z,1002.96
2022-08-14T09:37:46.043Z,1002.99
2022-08-14T09:38:46.030Z,1002.99
2022-08-14T09:39:46.040Z,1002.95
2022-08-14T09:40:47.742Z,1002.97
2022-08-14T09:42:20.691Z,1003.00
2022-08-14T09:42:50.237Z,1002.96
2022-08-14T09:43:45.960Z,1002.94
2022-08-14T09:44:46.127Z,1002.87
2022-08-14T09:45:53.231Z,1002.93
2022-08-14T09:46:49.846Z,1002.88
2022-08-14T09:47:45.903Z,1002.92
2022-08-14T09:48:45.891Z,1002.87
2022-08-14T09:49:53.177Z,1002.85
2022-08-14T09:50:45.862Z,1002.80
2022-08-14T09:51:51.862Z,1002.85
2022-08-14T09:52:47.038Z,1002.86
2022-08-14T09:54:18.741Z,1002.88
2022-08-14T09:54:45.821Z,1002.88
2022-08-14T09:55:45.794Z,1002.86
2022-08-14T09:56:45.786Z,1002.86
2022-08-14T09:57:46.000Z,1002.89
2022-08-14T09:58:45.754Z,1002.88
2022-08-14T09:59:45.739Z,1002.87
2022-08-14T10:00:45.728Z,1002.86
2022-08-14T10:01:46.125Z,1002.85
2022-08-14T10:02:46.315Z,1002.78
2022-08-14T10:03:45.687Z,1002.85
2022-08-14T10:04:45.990Z,1002.86
2022-08-14T10:05:45.664Z,1002.82
2022-08-14T10:06:45.650Z,1002.83
2022-08-14T10:07:47.505Z,1002.82
2022-08-14T10:08:45.620Z,1002.85
2022-08-14T10:09:45.611Z,1002.86
2022-08-14T10:10:45.595Z,1002.84
2022-08-14T10:11:45.845Z,1002.75
2022-08-14T10:12:45.766Z,1002.71
2022-08-14T10:13:53.233Z,1002.70
2022-08-14T10:14:45.691Z,1002.60
2022-08-14T10:15:45.532Z,1002.61
2022-08-14T10:16:45.518Z,1002.58
2022-08-14T10:17:46.299Z,1002.58
2022-08-14T10:18:45.493Z,1002.58
2022-08-14T10:19:45.480Z,1002.54
2022-08-14T10:20:49.827Z,1002.52
2022-08-14T10:21:58.274Z,1002.55
2022-08-14T10:23:12.914Z,1002.49
2022-08-14T10:23:45.467Z,1002.50
2022-08-14T10:24:45.418Z,1002.47
2022-08-14T10:25:45.406Z,1002.47
2022-08-14T10:26:45.397Z,1002.48
2022-08-14T10:27:45.383Z,1002.48
2022-08-14T10:29:17.541Z,1002.50
2022-08-14T10:29:45.359Z,1002.47
2022-08-14T10:30:45.345Z,1002.48
2022-08-14T10:31:45.822Z,1002.42
2022-08-14T10:32:51.132Z,1002.39
2022-08-14T10:33:50.818Z,1002.33
2022-08-14T10:34:45.296Z,1002.35
2022-08-14T10:35:48.325Z,1002.32
2022-08-14T10:36:47.813Z,1002.34
2022-08-14T10:37:45.262Z,1002.27
2022-08-14T10:38:50.486Z,1002.24
2022-08-14T10:40:01.359Z,1002.23
2022-08-14T10:40:52.204Z,1002.24
2022-08-14T10:41:48.448Z,1002.24
2022-08-14T10:42:45.430Z,1002.22
2022-08-14T10:43:45.191Z,1002.27
2022-08-14T10:44:45.176Z,1002.30
2022-08-14T10:45:46.509Z,1002.25
2022-08-14T10:47:39.363Z,1002.23
2022-08-14T10:48:08.196Z,1002.22
2022-08-14T10:48:45.841Z,1002.18
2022-08-14T10:49:45.123Z,1002.19
2022-08-14T10:50:45.110Z,1002.18
2022-08-14T10:51:45.099Z,1002.16
2022-08-14T10:52:45.331Z,1002.12
2022-08-14T10:53:45.077Z,1002.12
2022-08-14T10:54:47.461Z,1002.02
2022-08-14T10:55:45.993Z,1002.05
2022-08-14T10:56:45.039Z,1002.03
2022-08-14T10:57:45.031Z,1002.03
2022-08-14T10:58:45.015Z,1001.99
2022-08-14T10:59:45.007Z,1001.99
2022-08-14T11:00:47.259Z,1002.02
2022-08-14T11:01:44.985Z,1002.02
2022-08-14T11:02:55.251Z,1001.96
2022-08-14T11:03:56.630Z,1001.91
2022-08-14T11:04:44.976Z,1001.90
2022-08-14T11:05:44.939Z,1001.93
2022-08-14T11:06:44.924Z,1001.94
2022-08-14T11:07:44.917Z,1001.90
2022-08-14T11:08:45.649Z,1001.90
2022-08-14T11:09:44.892Z,1001.95
2022-08-14T11:10:44.903Z,1001.92
2022-08-14T11:11:44.874Z,1001.92
2022-08-14T11:12:44.959Z,1001.89
2022-08-14T11:13:44.855Z,1001.86
2022-08-14T11:14:44.841Z,1001.81
2022-08-14T11:15:44.825Z,1001.85
2022-08-14T11:16:48.944Z,1001.94
2022-08-14T11:17:45.923Z,1001.84
2022-08-14T11:18:44.790Z,1001.84
2022-08-14T11:19:44.779Z,1001.85
2022-08-14T11:20:44.766Z,1001.80
2022-08-14T11:21:46.600Z,1001.81
2022-08-14T11:22:56.572Z,1001.77
2022-08-14T11:23:44.735Z,1001.77
2022-08-14T11:24:50.952Z,1001.76
2022-08-14T11:25:53.228Z,1001.72
2022-08-14T11:26:44.699Z,1001.73
2022-08-14T11:27:44.688Z,1001.71
2022-08-14T11:28:46.331Z,1001.74
2022-08-14T11:29:44.668Z,1001.74
2022-08-14T11:30:51.678Z,1001.75
2022-08-14T11:31:44.643Z,1001.71
2022-08-14T11:32:44.869Z,1001.72
2022-08-14T11:33:44.623Z,1001.72
2022-08-14T11:34:44.608Z,1001.73
2022-08-14T11:35:48.288Z,1001.67
2022-08-14T11:37:02.231Z,1001.66
2022-08-14T11:37:44.575Z,1001.65
2022-08-14T11:38:45.070Z,1001.66
2022-08-14T11:39:45.585Z,1001.67
2022-08-14T11:40:47.029Z,1001.62
2022-08-14T11:41:55.828Z,1001.60
2022-08-14T11:42:58.143Z,1001.64
2022-08-14T11:43:49.477Z,1001.65
2022-08-14T11:44:46.055Z,1001.62
2022-08-14T11:45:44.484Z,1001.60
2022-08-14T11:46:44.471Z,1001.54
2022-08-14T11:48:13.428Z,1001.58
2022-08-14T11:49:02.327Z,1001.57
2022-08-14T11:49:44.438Z,1001.55
2022-08-14T11:50:44.423Z,1001.54
2022-08-14T11:51:53.966Z,1001.52
2022-08-14T11:52:44.404Z,1001.50
2022-08-14T11:53:44.692Z,1001.49
2022-08-14T11:54:44.376Z,1001.49
2022-08-14T11:55:44.364Z,1001.48
2022-08-14T11:56:44.356Z,1001.44
2022-08-14T11:57:44.341Z,1001.43
2022-08-14T11:58:44.326Z,1001.39
2022-08-14T11:59:44.523Z,1001.33
2022-08-14T12:00:46.114Z,1001.38
2022-08-14T12:01:44.296Z,1001.34
2022-08-14T12:03:02.829Z,1001.28
2022-08-14T12:03:51.368Z,1001.25
2022-08-14T12:04:44.327Z,1001.26
2022-08-14T12:05:44.249Z,1001.19
2022-08-14T12:06:44.234Z,1001.24